createdAt,value
2022-08-22T00:01:30.234Z,98138.38
2022-08-22T00:02:43.872Z,98142.84
2022-08-22T00:02:49.633Z,98130.84
2022-08-22T00:02:57.071Z,98127.25
2022-08-22T00:02:59.283Z,98138.22
2022-08-22T00:04:03.954Z,98142.38
2022-08-22T00:06:43.561Z,98139.59
2022-08-22T00:09:18.991Z,98143.38
2022-08-22T00:12:15.900Z,98150.28
2022-08-22T00:15:42.213Z,98140.91
2022-08-22T00:18:16.183Z,98136.91
2022-08-22T00:21:29.555Z,98138.84
2022-08-22T00:24:18.986Z,98139.56
2022-08-22T00:26:52.675Z,98139.09
2022-08-22T00:29:33.406Z,98135.44
2022-08-22T00:32:10.744Z,98135.22
2022-08-22T00:34:48.957Z,98139.72
2022-08-22T00:37:22.351Z,98146.19
2022-08-22T00:40:07.309Z,98137.13
2022-08-22T00:42:45.941Z,98137.28
2022-08-22T00:45:21.184Z,98134.56
2022-08-22T00:48:01.194Z,98134.19
2022-08-22T00:50:59.985Z,98138.03
2022-08-22T00:53:47.253Z,98131.91
2022-08-22T00:57:08.145Z,98127.22
2022-08-22T00:59:49.894Z,98132.63
2022-08-22T01:02:31.774Z,98130.53
2022-08-22T01:05:04.065Z,98131.25
2022-08-22T01:08:05.132Z,98136.47
2022-08-22T01:11:00.792Z,98135.19
2022-08-22T01:14:13.487Z,98133.53
2022-08-22T01:17:10.457Z,98136.56
2022-08-22T01:20:13.943Z,98125.75
2022-08-22T01:23:08.191Z,98138.31
2022-08-22T01:26:12.380Z,98129.13
2022-08-22T01:28:59.170Z,98126.47
2022-08-22T01:31:44.342Z,98131.53
2022-08-22T01:34:19.630Z,98125.22
2022-08-22T01:37:23.852Z,98124.34
2022-08-22T01:40:05.525Z,98126.84
2022-08-22T01:43:11.037Z,98121.53
2022-08-22T01:45:40.571Z,98125.09
2022-08-22T01:48:16.539Z,98127.97
2022-08-22T01:50:47.504Z,98133.16
2022-08-22T01:53:28.628Z,98129.53
2022-08-22T01:56:10.853Z,98136.72
2022-08-22T01:58:43.879Z,98138.28
2022-08-22T02:01:33.752Z,98138.56
2022-08-22T02:04:04.906Z,98140.28
2022-08-22T02:06:46.021Z,98141.28
2022-08-22T02:09:40.422Z,98134.16
2022-08-22T02:12:25.591Z,98134.44
2022-08-22T02:15:07.169Z,98136.44
2022-08-22T02:17:48.257Z,98130.66
2022-08-22T02:20:30.175Z,98131.13
2022-08-22T02:23:36.445Z,98127.75
2022-08-22T02:26:09.827Z,98124.44
2022-08-22T02:28:56.993Z,98134.78
2022-08-22T02:31:37.970Z,98140.28
2022-08-22T02:34:26.449Z,98133.22
2022-08-22T02:37:06.864Z,98130.44
2022-08-22T02:39:46.549Z,98127.78
2022-08-22T02:42:41.125Z,98125.63
2022-08-22T02:45:22.873Z,98133.75
2022-08-22T02:47:57.272Z,98118.09
2022-08-22T02:50:46.423Z,98126.69
2022-08-22T02:53:23.775Z,98120.13
2022-08-22T02:56:03.868Z,98122.84
2022-08-22T02:58:49.499Z,98117.25
2022-08-22T03:01:37.455Z,98117.94
2022-08-22T03:04:22.804Z,98115.19
2022-08-22T03:06:58.535Z,98114.69
2022-08-22T03:09:29.401Z,98109.22
2022-08-22T03:12:06.328Z,98110.25
2022-08-22T03:14:43.343Z,98109.91
2022-08-22T03:17:16.212Z,98113.56
2022-08-22T03:19:55.109Z,98116.53
2022-08-22T03:22:39.447Z,98116.16
2022-08-22T03:25:32.323Z,98113.13
2022-08-22T03:28:03.178Z,98112.97
2022-08-22T03:30:34.705Z,98117.25
2022-08-22T03:33:17.951Z,98116.66
2022-08-22T03:35:44.946Z,98117.63
2022-08-22T03:38:22.729Z,98119.31
2022-08-22T03:41:08.104Z,98116.81
2022-08-22T03:43:52.874Z,98120.41
2022-08-22T03:46:43.968Z,98117.97
2022-08-22T03:49:42.541Z,98118.19
2022-08-22T03:52:27.740Z,98128.03
2022-08-22T03:55:20.549Z,98119.56
2022-08-22T03:58:27.631Z,98114.78
2022-08-22T04:01:12.512Z,98125.13
2022-08-22T04:04:16.395Z,98121.72
2022-08-22T04:07:19.665Z,98131.72
2022-08-22T04:10:10.442Z,98130.97
2022-08-22T04:12:45.059Z,98133.00
2022-08-22T04:15:30.371Z,98138.47
2022-08-22T04:18:05.619Z,98143.31
2022-08-22T04:20:52.630Z,98145.66
2022-08-22T04:23:58.437Z,98144.31
2022-08-22T04:26:49.618Z,98144.94
2022-08-22T04:29:48.737Z,98146.75
2022-08-22T04:32:25.354Z,98146.75
2022-08-22T04:34:59.276Z,98141.59
2022-08-22T04:37:56.246Z,98145.72
2022-08-22T04:40:30.457Z,98147.22
2022-08-22T04:43:06.192Z,98149.97
2022-08-22T04:45:38.193Z,98153.41
2022-08-22T04:48:09.623Z,98153.34
2022-08-22T04:50:43.636Z,98154.03
2022-08-22T04:53:48.828Z,98158.97
2022-08-22T04:56:22.491Z,98154.97
2022-08-22T04:58:57.025Z,98165.44
2022-08-22T05:01:44.771Z,98163.91
2022-08-22T05:04:19.930Z,98164.53
2022-08-22T05:06:53.700Z,98165.03
2022-08-22T05:09:25.742Z,98175.75
2022-08-22T05:11:55.525Z,98176.41
2022-08-22T05:14:28.093Z,98176.56
2022-08-22T05:16:54.537Z,98170.47
2022-08-22T05:19:32.081Z,98180.38
2022-08-22T05:21:59.440Z,98181.94
2022-08-22T05:24:32.858Z,98178.63
2022-08-22T05:27:11.939Z,98175.16
2022-08-22T05:29:41.168Z,98184.09
2022-08-22T05:32:12.657Z,98178.22
2022-08-22T05:34:40.813Z,98176.94
2022-08-22T05:37:17.782Z,98183.16
2022-08-22T05:39:47.912Z,98180.03
2022-08-22T05:42:30.421Z,98177.19
2022-08-22T05:44:57.210Z,98177.38
2022-08-22T05:47:34.071Z,98175.84
2022-08-22T05:50:12.545Z,98179.03
2022-08-22T05:52:48.449Z,98179.69
2022-08-22T05:55:26.807Z,98181.16
2022-08-22T05:58:10.834Z,98183.31
2022-08-22T06:00:41.197Z,98180.53
2022-08-22T06:03:26.717Z,98176.13
2022-08-22T06:05:56.168Z,98185.56
2022-08-22T06:08:34.324Z,98191.81
2022-08-22T06:11:09.247Z,98184.78
2022-08-22T06:13:41.383Z,98181.78
2022-08-22T06:16:08.110Z,98172.63
2022-08-22T06:18:38.139Z,98169.28
2022-08-22T06:21:09.715Z,98168.56
2022-08-22T06:23:36.976Z,98166.84
2022-08-22T06:26:05.312Z,98177.81
2022-08-22T06:28:37.195Z,98169.28
2022-08-22T06:31:22.586Z,98171.19
2022-08-22T06:34:07.618Z,98173.31
2022-08-22T06:36:39.188Z,98182.44
2022-08-22T06:39:09.070Z,98184.94
2022-08-22T06:42:03.050Z,98175.94
2022-08-22T06:44:41.531Z,98176.63
2022-08-22T06:47:10.360Z,98176.06
2022-08-22T06:49:37.901Z,98170.13
2022-08-22T06:52:11.716Z,98171.19
2022-08-22T06:54:44.730Z,98169.59
2022-08-22T06:57:37.180Z,98177.41
2022-08-22T07:00:09.565Z,98172.69
2022-08-22T07:02:42.482Z,98179.91
2022-08-22T07:05:17.507Z,98178.69
2022-08-22T07:07:44.150Z,98185.28
2022-08-22T07:10:13.252Z,98191.03
2022-08-22T07:12:48.501Z,98186.50
2022-08-22T07:15:34.316Z,98188.16
2022-08-22T07:18:08.108Z,98191.66
2022-08-22T07:20:38.681Z,98194.34
2022-08-22T07:23:10.813Z,98188.78
2022-08-22T07:26:01.525Z,98185.72
2022-08-22T07:28:51.650Z,98191.03
2022-08-22T07:31:37.020Z,98194.13
2022-08-22T07:34:23.931Z,98188.50
2022-08-22T07:36:59.224Z,98197.53
2022-08-22T07:39:38.094Z,98195.00
2022-08-22T07:42:18.244Z,98194.19
2022-08-22T07:45:03.873Z,98186.88
2022-08-22T07:48:04.198Z,98191.97
2022-08-22T07:50:39.380Z,98193.78
2022-08-22T07:53:19.877Z,98196.38
2022-08-22T07:55:49.683Z,98196.44
2022-08-22T07:58:17.020Z,98180.63
2022-08-22T08:00:45.196Z,98190.97
2022-08-22T08:03:12.275Z,98186.97
2022-08-22T08:05:42.227Z,98183.56
2022-08-22T08:08:21.546Z,98186.00
2022-08-22T08:10:49.035Z,98184.22
2022-08-22T08:13:21.517Z,98188.91
2022-08-22T08:15:50.455Z,98190.53
2022-08-22T08:18:21.843Z,98192.81
2022-08-22T08:20:55.825Z,98197.06
2022-08-22T08:23:23.757Z,98194.34
2022-08-22T08:26:03.376Z,98193.44
2022-08-22T08:28:36.095Z,98201.19
2022-08-22T08:31:16.623Z,98204.03
2022-08-22T08:33:45.396Z,98202.88
2022-08-22T08:36:21.094Z,98198.84
2022-08-22T08:38:55.816Z,98197.59
2022-08-22T08:41:45.485Z,98194.97
2022-08-22T08:44:30.419Z,98194.03
2022-08-22T08:47:24.775Z,98202.81
2022-08-22T08:49:57.259Z,98192.94
2022-08-22T08:52:26.796Z,98191.66
2022-08-22T08:58:24.036Z,98183.41
2022-08-22T09:01:16.850Z,98188.94
2022-08-22T09:04:04.939Z,98180.53
2022-08-22T09:06:43.815Z,98189.97
2022-08-22T09:09:22.332Z,98184.59
2022-08-22T09:11:54.879Z,98171.94
2022-08-22T09:14:27.189Z,98169.88
2022-08-22T09:17:19.724Z,98167.69
2022-08-22T09:19:59.613Z,98174.66
2022-08-22T09:22:50.811Z,98168.50
2022-08-22T09:25:23.409Z,98175.66
2022-08-22T09:28:14.442Z,98173.19
2022-08-22T09:31:32.911Z,98180.28
2022-08-22T09:34:23.840Z,98174.81
2022-08-22T09:37:09.161Z,98174.81
2022-08-22T09:40:17.276Z,98176.06
2022-08-22T09:43:11.069Z,98174.88
2022-08-22T09:45:43.022Z,98169.97
2022-08-22T09:48:34.599Z,98164.13
2022-08-22T09:51:31.462Z,98177.94
2022-08-22T09:54:16.434Z,98172.78
2022-08-22T09:57:05.229Z,98171.53
2022-08-22T09:59:51.853Z,98172.09
2022-08-22T10:02:43.647Z,98172.97
2022-08-22T10:05:41.145Z,98172.41
2022-08-22T10:08:20.210Z,98174.38
2022-08-22T10:10:54.715Z,98171.44
2022-08-22T10:13:43.436Z,98167.03
2022-08-22T10:16:43.701Z,98177.84
2022-08-22T10:19:27.836Z,98171.34
2022-08-22T10:22:33.598Z,98166.66
2022-08-22T10:25:28.515Z,98166.38
2022-08-22T10:28:06.532Z,98164.16
2022-08-22T10:30:47.182Z,98165.47
2022-08-22T10:33:29.130Z,98160.31
2022-08-22T10:36:05.200Z,98148.63
2022-08-22T10:38:47.063Z,98141.91
2022-08-22T10:41:13.647Z,98140.63
2022-08-22T10:44:10.860Z,98143.00
2022-08-22T10:46:50.109Z,98133.91
2022-08-22T10:49:40.658Z,98139.19
2022-08-22T10:52:45.768Z,98132.44
2022-08-22T10:55:15.595Z,98134.41
2022-08-22T10:57:53.015Z,98128.13
2022-08-22T11:00:46.197Z,98125.28
2022-08-22T11:03:40.760Z,98117.88
2022-08-22T11:06:14.069Z,98113.56
2022-08-22T11:09:04.751Z,98116.16
2022-08-22T11:11:54.138Z,98110.34
2022-08-22T11:14:23.422Z,98103.59
2022-08-22T11:16:58.763Z,98108.03
2022-08-22T11:19:44.757Z,98099.59
2022-08-22T11:22:30.562Z,98109.78
2022-08-22T11:25:13.757Z,98108.81
2022-08-22T11:28:01.802Z,98099.09
2022-08-22T11:30:44.952Z,98100.13
2022-08-22T11:33:32.491Z,98108.16
2022-08-22T11:36:20.082Z,98085.09
2022-08-22T11:39:09.987Z,98083.88
2022-08-22T11:41:57.775Z,98087.59
2022-08-22T11:44:52.175Z,98086.84
2022-08-22T11:47:27.132Z,98083.75
2022-08-22T11:50:03.728Z,98083.06
2022-08-22T11:53:15.030Z,98078.53
2022-08-22T11:55:54.057Z,98076.28
2022-08-22T11:58:20.863Z,98082.59
2022-08-22T12:01:03.941Z,98077.16
2022-08-22T12:04:04.533Z,98070.91
2022-08-22T12:06:48.531Z,98069.09
2022-08-22T12:09:27.004Z,98070.50
2022-08-22T12:12:18.128Z,98070.00
2022-08-22T12:15:09.324Z,98068.75
2022-08-22T12:17:55.221Z,98074.69
2022-08-22T12:20:53.402Z,98067.78
2022-08-22T12:23:48.598Z,98062.59
2022-08-22T12:26:35.104Z,98075.03
2022-08-22T12:29:39.973Z,98063.91
2022-08-22T12:32:45.918Z,98059.03
2022-08-22T12:35:29.935Z,98058.06
2022-08-22T12:38:29.308Z,98069.06
2022-08-22T12:41:08.096Z,98057.63
2022-08-22T12:43:57.620Z,98058.94
2022-08-22T12:46:46.776Z,98056.53
2022-08-22T12:49:52.641Z,98056.06
2022-08-22T12:52:44.397Z,98047.31
2022-08-22T12:55:20.708Z,98046.06
2022-08-22T12:58:03.836Z,98047.00
2022-08-22T13:00:40.243Z,98045.97
2022-08-22T13:03:11.427Z,98040.22
2022-08-22T13:05:40.533Z,98042.78
2022-08-22T13:08:20.539Z,98035.38
2022-08-22T13:10:54.489Z,98033.88
2022-08-22T13:13:37.314Z,98032.91
2022-08-22T13:16:08.971Z,98040.59
2022-08-22T13:18:46.825Z,98036.59
2022-08-22T13:21:24.812Z,98039.66
2022-08-22T13:23:57.590Z,98036.97
2022-08-22T13:26:31.864Z,98043.59
2022-08-22T13:29:26.746Z,98025.88
2022-08-22T13:31:56.261Z,98030.25
2022-08-22T13:34:38.406Z,98032.47
2022-08-22T13:37:07.691Z,98027.84
2022-08-22T13:39:39.259Z,98023.50
2022-08-22T13:42:07.650Z,98031.25
2022-08-22T13:44:44.426Z,98033.41
2022-08-22T13:47:15.000Z,98027.81
2022-08-22T13:49:45.337Z,98025.34
2022-08-22T13:52:29.234Z,98017.91
2022-08-22T13:55:12.403Z,98015.13
2022-08-22T13:58:00.316Z,98011.13
2022-08-22T14:00:35.702Z,98014.59
2022-08-22T14:03:14.113Z,98010.28
2022-08-22T14:05:48.213Z,98013.53
2022-08-22T14:08:20.914Z,98010.66
2022-08-22T14:10:55.146Z,98008.31
2022-08-22T14:13:48.554Z,98015.78
2022-08-22T14:16:32.723Z,98005.41
2022-08-22T14:19:06.161Z,98007.56
2022-08-22T14:21:46.184Z,98004.00
2022-08-22T14:24:18.965Z,98008.91
2022-08-22T14:27:06.425Z,98007.19
2022-08-22T14:29:54.936Z,98001.81
2022-08-22T14:32:22.800Z,98009.16
2022-08-22T14:35:01.351Z,97999.13
2022-08-22T14:37:35.113Z,98004.44
2022-08-22T14:40:29.581Z,97999.44
2022-08-22T14:43:08.188Z,98000.97
2022-08-22T14:45:38.128Z,97996.09
2022-08-22T14:48:31.627Z,97996.34
2022-08-22T14:51:08.404Z,97999.59
2022-08-22T14:53:38.091Z,97995.56
2022-08-22T14:56:05.461Z,97993.09
2022-08-22T14:58:36.013Z,97991.19
2022-08-22T15:01:15.469Z,97992.00
2022-08-22T15:03:42.887Z,97989.44
2022-08-22T15:06:16.972Z,97988.00
2022-08-22T15:08:49.924Z,97992.59
2022-08-22T15:11:20.909Z,97986.13
2022-08-22T15:14:04.399Z,97987.09
2022-08-22T15:16:40.389Z,97990.00
2022-08-22T15:19:28.577Z,97982.44
2022-08-22T15:22:13.626Z,97982.50
2022-08-22T15:25:22.893Z,97981.88
2022-08-22T15:28:05.588Z,97982.94
2022-08-22T15:31:03.794Z,97973.41
2022-08-22T15:33:36.198Z,97968.44
2022-08-22T15:36:20.128Z,97980.00
2022-08-22T15:38:55.651Z,97974.38
2022-08-22T15:41:31.347Z,97969.56
2022-08-22T15:44:32.492Z,97966.09
2022-08-22T15:47:01.416Z,97968.03
2022-08-22T15:49:30.862Z,97968.00
2022-08-22T15:52:03.281Z,97961.28
2022-08-22T15:54:31.389Z,97952.91
2022-08-22T15:57:10.378Z,97957.53
2022-08-22T15:59:54.063Z,97963.56
2022-08-22T16:02:26.045Z,97952.78
2022-08-22T16:05:22.432Z,97951.69
2022-08-22T16:07:51.944Z,97949.44
2022-08-22T16:10:24.789Z,97953.41
2022-08-22T16:13:35.430Z,97950.84
2022-08-22T16:16:07.360Z,97951.34
2022-08-22T16:18:33.899Z,97951.25
2022-08-22T16:21:04.450Z,97952.03
2022-08-22T16:23:46.227Z,97953.63
2022-08-22T16:26:15.523Z,97947.25
2022-08-22T16:28:58.771Z,97956.59
2022-08-22T16:31:35.864Z,97951.56
2022-08-22T16:34:17.748Z,97950.88
2022-08-22T16:36:54.607Z,97959.28
2022-08-22T16:39:23.941Z,97950.50
2022-08-22T16:41:53.087Z,97947.63
2022-08-22T16:44:22.501Z,97943.97
2022-08-22T16:46:52.054Z,97946.50
2022-08-22T16:49:30.871Z,97948.66
2022-08-22T16:52:25.385Z,97949.22
2022-08-22T16:55:02.770Z,97950.63
2022-08-22T16:58:07.161Z,97950.50
2022-08-22T17:00:36.602Z,97945.88
2022-08-22T17:03:11.110Z,97957.88
2022-08-22T17:06:15.245Z,97945.94
2022-08-22T17:09:00.382Z,97952.91
2022-08-22T17:11:49.286Z,97954.50
2022-08-22T17:14:39.041Z,97954.38
2022-08-22T17:17:32.818Z,97962.84
2022-08-22T17:20:17.694Z,97961.03
2022-08-22T17:22:58.087Z,97963.44
2022-08-22T17:25:30.521Z,97963.56
2022-08-22T17:28:20.003Z,97966.78
2022-08-22T17:30:59.229Z,97970.00
2022-08-22T17:33:40.870Z,97979.50
2022-08-22T17:36:26.837Z,97974.97
2022-08-22T17:39:15.837Z,97979.69
2022-08-22T17:41:48.556Z,97978.00
2022-08-22T17:44:33.808Z,97975.53
2022-08-22T17:47:09.802Z,97979.56
2022-08-22T17:49:42.400Z,97985.53
2022-08-22T17:52:44.048Z,97994.28
2022-08-22T17:55:23.179Z,97988.88
2022-08-22T17:58:13.642Z,98002.41
2022-08-22T18:01:09.312Z,97997.88
2022-08-22T18:03:38.898Z,98003.16
2022-08-22T18:06:40.811Z,98000.28
2022-08-22T18:09:21.886Z,98002.38
2022-08-22T18:12:00.993Z,97996.19
2022-08-22T18:15:03.741Z,98004.03
2022-08-22T18:17:31.731Z,98009.00
2022-08-22T18:20:05.631Z,98007.47
2022-08-22T18:22:41.899Z,98005.50
2022-08-22T18:25:17.684Z,98015.34
2022-08-22T18:27:52.108Z,98014.44
2022-08-22T18:30:22.341Z,98012.78
2022-08-22T18:33:22.507Z,98026.84
2022-08-22T18:35:54.647Z,98022.69
2022-08-22T18:38:25.491Z,98017.81
2022-08-22T18:41:07.359Z,98031.44
2022-08-22T18:43:42.791Z,98029.41
2022-08-22T18:46:33.268Z,98023.72
2022-08-22T18:49:19.822Z,98036.41
2022-08-22T18:52:05.429Z,98032.63
2022-08-22T18:54:34.799Z,98039.59
2022-08-22T18:57:40.317Z,98040.06
2022-08-22T19:00:21.501Z,98046.50
2022-08-22T19:03:14.578Z,98041.13
2022-08-22T19:05:50.513Z,98052.88
2022-08-22T19:08:33.369Z,98048.56
2022-08-22T19:11:12.815Z,98052.72
2022-08-22T19:14:13.824Z,98055.19
2022-08-22T19:17:03.048Z,98064.06
2022-08-22T19:20:07.998Z,98059.75
2022-08-22T19:22:36.405Z,98064.50
2022-08-22T19:25:06.048Z,98067.22
2022-08-22T19:27:40.440Z,98069.69
2022-08-22T19:30:29.143Z,98071.31
2022-08-22T19:32:59.462Z,98071.31
2022-08-22T19:35:27.912Z,98078.78
2022-08-22T19:38:01.093Z,98075.06
2022-08-22T19:40:45.714Z,98077.53
2022-08-22T19:43:38.642Z,98075.88
2022-08-22T19:46:08.687Z,98074.69
2022-08-22T19:48:43.552Z,98075.09
2022-08-22T19:51:24.400Z,98076.34
2022-08-22T19:54:17.492Z,98079.09
2022-08-22T19:56:50.497Z,98080.56
2022-08-22T19:59:26.309Z,98078.94
2022-08-22T20:02:02.547Z,98081.44
2022-08-22T20:04:35.126Z,98081.50
2022-08-22T20:07:26.180Z,98088.53
2022-08-22T20:10:05.360Z,98084.81
2022-08-22T20:13:05.393Z,98086.09
2022-08-22T20:16:02.514Z,98082.03
2022-08-22T20:19:07.984Z,98094.19
2022-08-22T20:21:39.370Z,98093.59
2022-08-22T20:24:09.081Z,98091.56
2022-08-22T20:26:51.929Z,98090.53
2022-08-22T20:29:39.595Z,98094.25
2022-08-22T20:32:06.736Z,98086.63
2022-08-22T20:34:37.310Z,98088.28
2022-08-22T20:37:27.084Z,98089.53
2022-08-22T20:40:21.093Z,98104.41
2022-08-22T20:43:01.942Z,98103.38
2022-08-22T20:45:41.211Z,98111.22
2022-08-22T20:48:11.211Z,98108.53
2022-08-22T20:50:38.062Z,98108.97
2022-08-22T20:53:12.477Z,98109.19
2022-08-22T20:55:39.362Z,98114.94
2022-08-22T20:58:23.279Z,98113.94
2022-08-22T21:00:52.591Z,98115.22
2022-08-22T21:03:34.701Z,98117.72
2022-08-22T21:06:17.972Z,98116.47
2022-08-22T21:08:45.718Z,98117.72
2022-08-22T21:11:40.041Z,98109.50
2022-08-22T21:14:21.301Z,98106.19
2022-08-22T21:16:47.920Z,98114.44
2022-08-22T21:19:26.588Z,98109.06
2022-08-22T21:21:53.344Z,98105.78
2022-08-22T21:24:20.345Z,98106.19
2022-08-22T21:26:51.917Z,98115.28
2022-08-22T21:29:26.994Z,98115.28
2022-08-22T21:32:14.581Z,98119.63
2022-08-22T21:34:43.243Z,98122.09
2022-08-22T21:37:15.236Z,98127.25
2022-08-22T21:39:45.324Z,98115.31
2022-08-22T21:42:22.204Z,98122.72
2022-08-22T21:45:06.521Z,98124.75
2022-08-22T21:47:36.963Z,98128.69
2022-08-22T21:50:12.559Z,98136.50
2022-08-22T21:52:44.104Z,98135.88
2022-08-22T21:55:34.444Z,98136.31
2022-08-22T21:58:01.580Z,98133.41
2022-08-22T22:01:02.022Z,98137.53
2022-08-22T22:03:31.143Z,98137.53
2022-08-22T22:06:02.842Z,98135.06
2022-08-22T22:08:31.397Z,98134.44
2022-08-22T22:11:00.840Z,98139.19
2022-08-22T22:13:28.560Z,98139.19
2022-08-22T22:15:55.384Z,98140.81
2022-08-22T22:18:27.303Z,98146.41
2022-08-22T22:20:54.209Z,98149.06
2022-08-22T22:23:22.095Z,98143.72
2022-08-22T22:25:49.575Z,98147.44
2022-08-22T22:28:19.879Z,98155.47
2022-08-22T22:30:53.035Z,98154.81
2022-08-22T22:33:26.699Z,98157.06
2022-08-22T22:35:55.000Z,98147.81
2022-08-22T22:38:24.225Z,98156.47
2022-08-22T22:40:51.356Z,98150.72
2022-08-22T22:43:17.996Z,98160.97
2022-08-22T22:45:44.638Z,98157.91
2022-08-22T22:48:11.279Z,98160.97
2022-08-22T22:50:44.785Z,98164.91
2022-08-22T22:53:12.105Z,98165.91
2022-08-22T22:55:48.078Z,98160.16
2022-08-22T22:58:27.464Z,98164.28
2022-08-22T23:00:54.241Z,98168.41
2022-08-22T23:03:20.891Z,98165.50
2022-08-22T23:05:47.439Z,98165.31
2022-08-22T23:08:13.998Z,98170.66
2022-08-22T23:10:40.621Z,98182.34
2022-08-22T23:13:07.304Z,98185.84
2022-08-22T23:15:34.470Z,98182.56
2022-08-22T23:18:01.378Z,98183.78
2022-08-22T23:20:28.083Z,98188.09
2022-08-22T23:22:54.662Z,98181.09
2022-08-22T23:25:21.442Z,98184.56
2022-08-22T23:27:48.757Z,98192.00
2022-08-22T23:30:19.624Z,98195.47
2022-08-22T23:32:46.225Z,98189.69
2022-08-22T23:35:12.868Z,98179.41
2022-08-22T23:37:39.430Z,98188.47
2022-08-22T23:40:10.227Z,98188.69
2022-08-22T23:42:37.035Z,98193.00
2022-08-22T23:45:04.022Z,98198.34
2022-08-22T23:47:30.631Z,98188.25
2022-08-22T23:49:57.216Z,98192.56
2022-08-22T23:52:23.783Z,98195.00
2022-08-22T23:54:55.596Z,98188.44
2022-08-22T23:57:27.321Z,98188.44
2022-08-22T23:59:57.803Z,98186.38
